sensor_id;sensor_type;location;lat;lon;timestamp;P1;durP1;ratioP1;P2;durP2;ratioP2
70102;SDS011;57470;50.034;15.256;2023-03-25T00:01:26;6.75;;;0.85;;
70102;SDS011;57470;50.034;15.256;2023-03-25T00:03:53;3.60;;;1.10;;
70102;SDS011;57470;50.034;15.256;2023-03-25T00:06:19;2.57;;;0.63;;
70102;SDS011;57470;50.034;15.256;2023-03-25T00:08:44;3.00;;;0.73;;
70102;SDS011;57470;50.034;15.256;2023-03-25T00:11:10;3.03;;;0.93;;
70102;SDS011;57470;50.034;15.256;2023-03-25T00:13:35;4.07;;;1.33;;
70102;SDS011;57470;50.034;15.256;2023-03-25T00:16:01;3.83;;;0.80;;
70102;SDS011;57470;50.034;15.256;2023-03-25T00:18:28;3.10;;;0.80;;
70102;SDS011;57470;50.034;15.256;2023-03-25T00:20:58;3.53;;;1.02;;
70102;SDS011;57470;50.034;15.256;2023-03-25T00:23:25;3.33;;;0.82;;
70102;SDS011;57470;50.034;15.256;2023-03-25T00:25:51;4.85;;;1.08;;
70102;SDS011;57470;50.034;15.256;2023-03-25T00:28:17;2.90;;;0.90;;
70102;SDS011;57470;50.034;15.256;2023-03-25T00:30:43;3.05;;;0.80;;
70102;SDS011;57470;50.034;15.256;2023-03-25T00:33:09;3.83;;;1.10;;
70102;SDS011;57470;50.034;15.256;2023-03-25T00:35:39;8.70;;;0.87;;
70102;SDS011;57470;50.034;15.256;2023-03-25T00:38:11;3.20;;;0.70;;
70102;SDS011;57470;50.034;15.256;2023-03-25T00:40:38;3.70;;;0.90;;
70102;SDS011;57470;50.034;15.256;2023-03-25T00:43:04;3.23;;;0.90;;
70102;SDS011;57470;50.034;15.256;2023-03-25T00:45:31;3.38;;;0.88;;
70102;SDS011;57470;50.034;15.256;2023-03-25T00:47:57;3.33;;;0.68;;
70102;SDS011;57470;50.034;15.256;2023-03-25T00:50:23;3.73;;;1.10;;
70102;SDS011;57470;50.034;15.256;2023-03-25T00:52:48;2.70;;;0.60;;
70102;SDS011;57470;50.034;15.256;2023-03-25T00:55:15;2.65;;;0.63;;
70102;SDS011;57470;50.034;15.256;2023-03-25T00:57:41;2.47;;;0.60;;
70102;SDS011;57470;50.034;15.256;2023-03-25T01:00:07;2.60;;;0.57;;
70102;SDS011;57470;50.034;15.256;2023-03-25T01:02:35;3.70;;;1.00;;
70102;SDS011;57470;50.034;15.256;2023-03-25T01:05:03;6.20;;;0.98;;
70102;SDS011;57470;50.034;15.256;2023-03-25T01:07:29;3.08;;;0.80;;
70102;SDS011;57470;50.034;15.256;2023-03-25T01:09:55;2.83;;;0.70;;
70102;SDS011;57470;50.034;15.256;2023-03-25T01:12:22;5.25;;;0.90;;
70102;SDS011;57470;50.034;15.256;2023-03-25T01:14:48;3.80;;;0.90;;
70102;SDS011;57470;50.034;15.256;2023-03-25T01:17:14;2.70;;;0.63;;
70102;SDS011;57470;50.034;15.256;2023-03-25T01:19:40;4.37;;;0.90;;
70102;SDS011;57470;50.034;15.256;2023-03-25T01:22:05;3.95;;;0.80;;
70102;SDS011;57470;50.034;15.256;2023-03-25T01:24:31;2.50;;;0.60;;
70102;SDS011;57470;50.034;15.256;2023-03-25T01:26:56;11.27;;;0.60;;
70102;SDS011;57470;50.034;15.256;2023-03-25T01:29:22;3.25;;;0.90;;
70102;SDS011;57470;50.034;15.256;2023-03-25T01:31:47;2.50;;;0.67;;
70102;SDS011;57470;50.034;15.256;2023-03-25T01:34:14;3.03;;;0.63;;
70102;SDS011;57470;50.034;15.256;2023-03-25T01:36:39;11.77;;;1.73;;
70102;SDS011;57470;50.034;15.256;2023-03-25T01:39:10;4.43;;;0.90;;
70102;SDS011;57470;50.034;15.256;2023-03-25T01:41:37;2.88;;;0.73;;
70102;SDS011;57470;50.034;15.256;2023-03-25T01:45:02;2.53;;;0.77;;
70102;SDS011;57470;50.034;15.256;2023-03-25T01:46:54;3.00;;;0.70;;
70102;SDS011;57470;50.034;15.256;2023-03-25T01:51:55;7.88;;;1.58;;
70102;SDS011;57470;50.034;15.256;2023-03-25T01:54:26;3.03;;;1.08;;
70102;SDS011;57470;50.034;15.256;2023-03-25T01:56:51;14.60;;;0.90;;
70102;SDS011;57470;50.034;15.256;2023-03-25T01:59:20;2.60;;;0.45;;
70102;SDS011;57470;50.034;15.256;2023-03-25T02:01:49;3.63;;;1.05;;
70102;SDS011;57470;50.034;15.256;2023-03-25T02:04:17;2.53;;;0.60;;
70102;SDS011;57470;50.034;15.256;2023-03-25T02:06:51;3.23;;;0.87;;
70102;SDS011;57470;50.034;15.256;2023-03-25T02:09:18;3.58;;;0.82;;
70102;SDS011;57470;50.034;15.256;2023-03-25T02:11:46;2.17;;;0.60;;
70102;SDS011;57470;50.034;15.256;2023-03-25T02:14:13;3.30;;;0.83;;
70102;SDS011;57470;50.034;15.256;2023-03-25T02:44:27;2.88;;;0.52;;
70102;SDS011;57470;50.034;15.256;2023-03-25T02:46:59;4.72;;;1.88;;
70102;SDS011;57470;50.034;15.256;2023-03-25T02:49:29;2.40;;;0.50;;
70102;SDS011;57470;50.034;15.256;2023-03-25T02:51:59;3.00;;;0.77;;
70102;SDS011;57470;50.034;15.256;2023-03-25T02:54:32;2.20;;;0.43;;
70102;SDS011;57470;50.034;15.256;2023-03-25T02:57:00;2.88;;;0.85;;
70102;SDS011;57470;50.034;15.256;2023-03-25T02:59:28;3.15;;;0.90;;
70102;SDS011;57470;50.034;15.256;2023-03-25T03:01:58;2.50;;;0.70;;
70102;SDS011;57470;50.034;15.256;2023-03-25T03:04:28;3.20;;;0.68;;
70102;SDS011;57470;50.034;15.256;2023-03-25T03:06:55;3.67;;;1.10;;
70102;SDS011;57470;50.034;15.256;2023-03-25T03:22:58;3.00;;;0.85;;
70102;SDS011;57470;50.034;15.256;2023-03-25T03:25:34;3.72;;;1.05;;
70102;SDS011;57470;50.034;15.256;2023-03-25T03:30:51;3.67;;;0.70;;
70102;SDS011;57470;50.034;15.256;2023-03-25T03:33:36;2.40;;;0.63;;
70102;SDS011;57470;50.034;15.256;2023-03-25T03:36:29;2.75;;;0.60;;
70102;SDS011;57470;50.034;15.256;2023-03-25T03:39:04;2.72;;;0.88;;
70102;SDS011;57470;50.034;15.256;2023-03-25T03:41:39;3.38;;;0.80;;
70102;SDS011;57470;50.034;15.256;2023-03-25T03:44:15;3.45;;;0.98;;
70102;SDS011;57470;50.034;15.256;2023-03-25T03:46:58;3.00;;;0.90;;
70102;SDS011;57470;50.034;15.256;2023-03-25T03:49:35;2.78;;;0.95;;
70102;SDS011;57470;50.034;15.256;2023-03-25T03:52:14;3.35;;;1.08;;
70102;SDS011;57470;50.034;15.256;2023-03-25T03:54:50;2.67;;;0.70;;
70102;SDS011;57470;50.034;15.256;2023-03-25T03:57:25;2.50;;;0.63;;
70102;SDS011;57470;50.034;15.256;2023-03-25T04:00:01;3.67;;;0.90;;
70102;SDS011;57470;50.034;15.256;2023-03-25T04:02:40;2.35;;;0.60;;
70102;SDS011;57470;50.034;15.256;2023-03-25T04:05:12;2.40;;;0.57;;
70102;SDS011;57470;50.034;15.256;2023-03-25T04:07:47;3.97;;;1.00;;
70102;SDS011;57470;50.034;15.256;2023-03-25T04:10:26;2.75;;;0.80;;
70102;SDS011;57470;50.034;15.256;2023-03-25T04:13:03;3.23;;;1.10;;
70102;SDS011;57470;50.034;15.256;2023-03-25T04:15:33;5.28;;;0.93;;
70102;SDS011;57470;50.034;15.256;2023-03-25T04:18:00;3.10;;;0.80;;
70102;SDS011;57470;50.034;15.256;2023-03-25T04:20:27;2.30;;;0.70;;
70102;SDS011;57470;50.034;15.256;2023-03-25T04:22:58;4.40;;;1.40;;
70102;SDS011;57470;50.034;15.256;2023-03-25T04:25:24;2.53;;;0.60;;
70102;SDS011;57470;50.034;15.256;2023-03-25T04:27:50;2.47;;;0.45;;
70102;SDS011;57470;50.034;15.256;2023-03-25T04:30:17;5.75;;;0.90;;
70102;SDS011;57470;50.034;15.256;2023-03-25T04:32:44;2.90;;;0.70;;
70102;SDS011;57470;50.034;15.256;2023-03-25T04:35:11;2.80;;;0.50;;
70102;SDS011;57470;50.034;15.256;2023-03-25T04:37:42;3.92;;;1.20;;
70102;SDS011;57470;50.034;15.256;2023-03-25T04:40:10;4.25;;;0.82;;
70102;SDS011;57470;50.034;15.256;2023-03-25T04:42:38;3.00;;;0.80;;
70102;SDS011;57470;50.034;15.256;2023-03-25T04:45:06;2.30;;;0.50;;
70102;SDS011;57470;50.034;15.256;2023-03-25T04:47:33;3.17;;;0.60;;
70102;SDS011;57470;50.034;15.256;2023-03-25T04:49:59;3.13;;;0.90;;
70102;SDS011;57470;50.034;15.256;2023-03-25T04:52:25;3.15;;;0.82;;
70102;SDS011;57470;50.034;15.256;2023-03-25T04:54:51;2.40;;;0.67;;
70102;SDS011;57470;50.034;15.256;2023-03-25T04:57:16;3.57;;;0.93;;
70102;SDS011;57470;50.034;15.256;2023-03-25T04:59:42;3.65;;;0.60;;
70102;SDS011;57470;50.034;15.256;2023-03-25T05:02:09;2.30;;;0.60;;
70102;SDS011;57470;50.034;15.256;2023-03-25T05:04:37;2.92;;;1.00;;
70102;SDS011;57470;50.034;15.256;2023-03-25T05:07:06;3.95;;;1.25;;
70102;SDS011;57470;50.034;15.256;2023-03-25T05:09:31;2.43;;;0.70;;
70102;SDS011;57470;50.034;15.256;2023-03-25T05:11:57;3.13;;;0.93;;
70102;SDS011;57470;50.034;15.256;2023-03-25T05:14:22;3.17;;;1.00;;
70102;SDS011;57470;50.034;15.256;2023-03-25T05:16:48;2.93;;;0.67;;
70102;SDS011;57470;50.034;15.256;2023-03-25T05:19:14;3.40;;;1.23;;
70102;SDS011;57470;50.034;15.256;2023-03-25T05:21:42;3.13;;;0.82;;
70102;SDS011;57470;50.034;15.256;2023-03-25T05:24:09;4.23;;;0.90;;
70102;SDS011;57470;50.034;15.256;2023-03-25T05:26:37;6.18;;;1.02;;
70102;SDS011;57470;50.034;15.256;2023-03-25T05:29:04;3.08;;;1.17;;
70102;SDS011;57470;50.034;15.256;2023-03-25T05:31:40;6.72;;;1.50;;
70102;SDS011;57470;50.034;15.256;2023-03-25T05:34:09;3.78;;;0.98;;
70102;SDS011;57470;50.034;15.256;2023-03-25T05:36:35;5.17;;;1.07;;
70102;SDS011;57470;50.034;15.256;2023-03-25T05:39:00;3.70;;;1.08;;
70102;SDS011;57470;50.034;15.256;2023-03-25T05:41:27;2.93;;;0.73;;
70102;SDS011;57470;50.034;15.256;2023-03-25T05:44:06;2.75;;;0.75;;
70102;SDS011;57470;50.034;15.256;2023-03-25T05:46:33;2.85;;;0.80;;
70102;SDS011;57470;50.034;15.256;2023-03-25T05:48:58;3.40;;;1.00;;
70102;SDS011;57470;50.034;15.256;2023-03-25T05:51:26;4.03;;;1.15;;
70102;SDS011;57470;50.034;15.256;2023-03-25T05:53:52;2.63;;;0.63;;
70102;SDS011;57470;50.034;15.256;2023-03-25T05:56:19;2.53;;;0.75;;
70102;SDS011;57470;50.034;15.256;2023-03-25T05:58:46;3.40;;;0.97;;
70102;SDS011;57470;50.034;15.256;2023-03-25T06:01:13;3.90;;;0.90;;
70102;SDS011;57470;50.034;15.256;2023-03-25T06:03:40;3.17;;;1.00;;
70102;SDS011;57470;50.034;15.256;2023-03-25T06:06:09;3.28;;;0.93;;
70102;SDS011;57470;50.034;15.256;2023-03-25T06:08:41;2.63;;;0.70;;
70102;SDS011;57470;50.034;15.256;2023-03-25T06:11:08;3.13;;;0.83;;
70102;SDS011;57470;50.034;15.256;2023-03-25T06:13:34;2.58;;;0.40;;
70102;SDS011;57470;50.034;15.256;2023-03-25T06:16:07;2.65;;;0.75;;
70102;SDS011;57470;50.034;15.256;2023-03-25T06:18:34;3.85;;;1.35;;
70102;SDS011;57470;50.034;15.256;2023-03-25T06:21:00;3.00;;;0.80;;
70102;SDS011;57470;50.034;15.256;2023-03-25T06:23:26;2.93;;;0.70;;
70102;SDS011;57470;50.034;15.256;2023-03-25T06:25:52;2.70;;;0.60;;
70102;SDS011;57470;50.034;15.256;2023-03-25T06:28:18;2.67;;;0.77;;
70102;SDS011;57470;50.034;15.256;2023-03-25T06:30:46;3.72;;;0.77;;
70102;SDS011;57470;50.034;15.256;2023-03-25T06:33:13;3.00;;;0.63;;
70102;SDS011;57470;50.034;15.256;2023-03-25T06:35:42;2.80;;;0.70;;
70102;SDS011;57470;50.034;15.256;2023-03-25T06:38:08;3.28;;;0.82;;
70102;SDS011;57470;50.034;15.256;2023-03-25T06:40:37;3.67;;;1.02;;
70102;SDS011;57470;50.034;15.256;2023-03-25T06:43:05;2.55;;;0.57;;
70102;SDS011;57470;50.034;15.256;2023-03-25T06:45:31;2.60;;;0.70;;
70102;SDS011;57470;50.034;15.256;2023-03-25T06:47:58;3.05;;;0.75;;
70102;SDS011;57470;50.034;15.256;2023-03-25T06:50:24;3.53;;;0.95;;
70102;SDS011;57470;50.034;15.256;2023-03-25T06:52:50;3.03;;;0.32;;
70102;SDS011;57470;50.034;15.256;2023-03-25T06:55:15;2.63;;;0.67;;
70102;SDS011;57470;50.034;15.256;2023-03-25T06:57:41;2.57;;;0.60;;
70102;SDS011;57470;50.034;15.256;2023-03-25T07:00:07;4.85;;;0.60;;
70102;SDS011;57470;50.034;15.256;2023-03-25T07:02:35;2.45;;;0.43;;
70102;SDS011;57470;50.034;15.256;2023-03-25T07:05:01;2.90;;;0.50;;
70102;SDS011;57470;50.034;15.256;2023-03-25T07:07:27;2.08;;;0.47;;
70102;SDS011;57470;50.034;15.256;2023-03-25T07:09:52;3.70;;;0.60;;
70102;SDS011;57470;50.034;15.256;2023-03-25T07:12:19;2.40;;;0.43;;
70102;SDS011;57470;50.034;15.256;2023-03-25T07:14:49;1.90;;;0.35;;
70102;SDS011;57470;50.034;15.256;2023-03-25T07:17:18;2.42;;;0.63;;
70102;SDS011;57470;50.034;15.256;2023-03-25T07:19:44;2.20;;;0.30;;
70102;SDS011;57470;50.034;15.256;2023-03-25T07:22:09;5.43;;;0.67;;
70102;SDS011;57470;50.034;15.256;2023-03-25T07:24:35;6.93;;;0.63;;
70102;SDS011;57470;50.034;15.256;2023-03-25T07:27:00;2.60;;;0.60;;
70102;SDS011;57470;50.034;15.256;2023-03-25T07:29:25;2.63;;;0.50;;
70102;SDS011;57470;50.034;15.256;2023-03-25T07:31:51;3.20;;;0.82;;
70102;SDS011;57470;50.034;15.256;2023-03-25T07:34:16;2.30;;;0.60;;
70102;SDS011;57470;50.034;15.256;2023-03-25T07:36:41;2.47;;;0.60;;
70102;SDS011;57470;50.034;15.256;2023-03-25T07:39:07;1.90;;;0.40;;
70102;SDS011;57470;50.034;15.256;2023-03-25T07:41:32;3.07;;;0.67;;
70102;SDS011;57470;50.034;15.256;2023-03-25T07:43:58;2.60;;;0.50;;
70102;SDS011;57470;50.034;15.256;2023-03-25T07:46:23;8.47;;;2.07;;
70102;SDS011;57470;50.034;15.256;2023-03-25T07:48:48;6.73;;;1.90;;
70102;SDS011;57470;50.034;15.256;2023-03-25T07:51:14;8.20;;;1.27;;
70102;SDS011;57470;50.034;15.256;2023-03-25T07:53:39;3.33;;;1.05;;
70102;SDS011;57470;50.034;15.256;2023-03-25T07:56:08;3.73;;;0.80;;
70102;SDS011;57470;50.034;15.256;2023-03-25T07:58:34;2.53;;;0.45;;
70102;SDS011;57470;50.034;15.256;2023-03-25T08:01:00;2.15;;;0.50;;
70102;SDS011;57470;50.034;15.256;2023-03-25T08:03:25;2.73;;;0.60;;
70102;SDS011;57470;50.034;15.256;2023-03-25T08:05:51;2.30;;;0.50;;
70102;SDS011;57470;50.034;15.256;2023-03-25T08:08:17;2.03;;;0.50;;
70102;SDS011;57470;50.034;15.256;2023-03-25T08:10:42;2.53;;;0.60;;
70102;SDS011;57470;50.034;15.256;2023-03-25T08:13:10;5.80;;;0.88;;
70102;SDS011;57470;50.034;15.256;2023-03-25T08:15:36;2.07;;;0.50;;
70102;SDS011;57470;50.034;15.256;2023-03-25T08:18:01;2.75;;;0.70;;
70102;SDS011;57470;50.034;15.256;2023-03-25T08:20:27;3.30;;;0.80;;
70102;SDS011;57470;50.034;15.256;2023-03-25T08:22:53;2.22;;;0.50;;
70102;SDS011;57470;50.034;15.256;2023-03-25T08:25:18;2.43;;;0.60;;
70102;SDS011;57470;50.034;15.256;2023-03-25T08:27:44;4.93;;;0.70;;
70102;SDS011;57470;50.034;15.256;2023-03-25T08:30:09;2.80;;;0.60;;
70102;SDS011;57470;50.034;15.256;2023-03-25T08:32:35;4.10;;;0.43;;
70102;SDS011;57470;50.034;15.256;2023-03-25T08:35:02;2.05;;;0.40;;
70102;SDS011;57470;50.034;15.256;2023-03-25T08:37:31;2.92;;;0.68;;
70102;SDS011;57470;50.034;15.256;2023-03-25T08:40:00;3.03;;;0.70;;
70102;SDS011;57470;50.034;15.256;2023-03-25T08:42:26;6.93;;;2.38;;
70102;SDS011;57470;50.034;15.256;2023-03-25T08:44:51;4.10;;;1.33;;
70102;SDS011;57470;50.034;15.256;2023-03-25T08:47:16;9.25;;;2.58;;
70102;SDS011;57470;50.034;15.256;2023-03-25T08:49:42;10.23;;;3.83;;
70102;SDS011;57470;50.034;15.256;2023-03-25T08:52:07;6.47;;;2.40;;
70102;SDS011;57470;50.034;15.256;2023-03-25T08:54:34;6.78;;;2.53;;
70102;SDS011;57470;50.034;15.256;2023-03-25T08:56:59;4.10;;;1.37;;
70102;SDS011;57470;50.034;15.256;2023-03-25T08:59:25;3.58;;;1.10;;
70102;SDS011;57470;50.034;15.256;2023-03-25T09:01:50;3.33;;;0.73;;
70102;SDS011;57470;50.034;15.256;2023-03-25T09:04:16;6.17;;;1.20;;
70102;SDS011;57470;50.034;15.256;2023-03-25T09:06:41;2.13;;;0.50;;
70102;SDS011;57470;50.034;15.256;2023-03-25T09:09:07;3.25;;;0.90;;
70102;SDS011;57470;50.034;15.256;2023-03-25T09:11:35;2.77;;;0.60;;
70102;SDS011;57470;50.034;15.256;2023-03-25T09:14:00;3.88;;;0.73;;
70102;SDS011;57470;50.034;15.256;2023-03-25T09:16:29;2.73;;;0.50;;
70102;SDS011;57470;50.034;15.256;2023-03-25T09:18:55;2.28;;;0.45;;
70102;SDS011;57470;50.034;15.256;2023-03-25T09:21:20;2.63;;;0.60;;
70102;SDS011;57470;50.034;15.256;2023-03-25T09:23:46;3.00;;;1.10;;
70102;SDS011;57470;50.034;15.256;2023-03-25T09:26:11;2.30;;;0.50;;
70102;SDS011;57470;50.034;15.256;2023-03-25T09:28:37;3.67;;;0.50;;
70102;SDS011;57470;50.034;15.256;2023-03-25T09:31:02;3.20;;;0.40;;
70102;SDS011;57470;50.034;15.256;2023-03-25T09:33:27;2.83;;;0.60;;
70102;SDS011;57470;50.034;15.256;2023-03-25T09:35:53;2.57;;;0.70;;
70102;SDS011;57470;50.034;15.256;2023-03-25T09:38:18;2.10;;;0.30;;
70102;SDS011;57470;50.034;15.256;2023-03-25T09:40:43;3.73;;;1.20;;
70102;SDS011;57470;50.034;15.256;2023-03-25T09:46:03;3.03;;;0.73;;
70102;SDS011;57470;50.034;15.256;2023-03-25T09:51:03;14.38;;;1.33;;
70102;SDS011;57470;50.034;15.256;2023-03-25T09:53:36;3.22;;;0.65;;
70102;SDS011;57470;50.034;15.256;2023-03-25T09:56:19;2.72;;;0.60;;
70102;SDS011;57470;50.034;15.256;2023-03-25T09:58:47;3.93;;;0.57;;
70102;SDS011;57470;50.034;15.256;2023-03-25T10:01:22;2.45;;;0.50;;
70102;SDS011;57470;50.034;15.256;2023-03-25T10:06:35;3.72;;;0.80;;
70102;SDS011;57470;50.034;15.256;2023-03-25T10:09:16;2.55;;;0.57;;
70102;SDS011;57470;50.034;15.256;2023-03-25T10:14:39;2.90;;;0.50;;
70102;SDS011;57470;50.034;15.256;2023-03-25T10:20:15;2.20;;;0.40;;
70102;SDS011;57470;50.034;15.256;2023-03-25T10:22:58;8.70;;;0.95;;
70102;SDS011;57470;50.034;15.256;2023-03-25T10:25:33;3.53;;;0.90;;
70102;SDS011;57470;50.034;15.256;2023-03-25T10:28:02;2.30;;;0.57;;
70102;SDS011;57470;50.034;15.256;2023-03-25T10:30:34;2.33;;;0.60;;
70102;SDS011;57470;50.034;15.256;2023-03-25T10:33:07;1.75;;;0.30;;
70102;SDS011;57470;50.034;15.256;2023-03-25T10:35:46;1.77;;;0.35;;
70102;SDS011;57470;50.034;15.256;2023-03-25T10:38:16;1.90;;;0.43;;
70102;SDS011;57470;50.034;15.256;2023-03-25T10:40:48;2.85;;;0.82;;
70102;SDS011;57470;50.034;15.256;2023-03-25T10:43:24;2.58;;;0.70;;
70102;SDS011;57470;50.034;15.256;2023-03-25T10:46:09;3.92;;;1.10;;
70102;SDS011;57470;50.034;15.256;2023-03-25T10:48:49;2.85;;;0.80;;
70102;SDS011;57470;50.034;15.256;2023-03-25T10:51:19;2.43;;;0.50;;
70102;SDS011;57470;50.034;15.256;2023-03-25T10:53:50;2.22;;;0.50;;
70102;SDS011;57470;50.034;15.256;2023-03-25T10:59:05;1.90;;;0.40;;
70102;SDS011;57470;50.034;15.256;2023-03-25T11:01:41;2.22;;;0.50;;
70102;SDS011;57470;50.034;15.256;2023-03-25T11:04:12;2.00;;;0.50;;
70102;SDS011;57470;50.034;15.256;2023-03-25T11:06:41;3.40;;;0.73;;
70102;SDS011;57470;50.034;15.256;2023-03-25T11:09:15;4.90;;;0.63;;
70102;SDS011;57470;50.034;15.256;2023-03-25T11:11:47;2.80;;;0.53;;
70102;SDS011;57470;50.034;15.256;2023-03-25T11:14:13;1.70;;;0.30;;
70102;SDS011;57470;50.034;15.256;2023-03-25T11:16:40;4.03;;;0.60;;
70102;SDS011;57470;50.034;15.256;2023-03-25T11:19:13;2.23;;;0.53;;
70102;SDS011;57470;50.034;15.256;2023-03-25T11:21:45;2.20;;;0.43;;
70102;SDS011;57470;50.034;15.256;2023-03-25T11:24:13;2.20;;;0.57;;
70102;SDS011;57470;50.034;15.256;2023-03-25T11:26:42;2.88;;;0.70;;
70102;SDS011;57470;50.034;15.256;2023-03-25T11:29:13;2.67;;;0.60;;
70102;SDS011;57470;50.034;15.256;2023-03-25T11:31:41;2.50;;;0.60;;
70102;SDS011;57470;50.034;15.256;2023-03-25T11:36:39;2.25;;;0.50;;
70102;SDS011;57470;50.034;15.256;2023-03-25T11:39:15;4.10;;;1.02;;
70102;SDS011;57470;50.034;15.256;2023-03-25T11:41:42;6.43;;;1.98;;
70102;SDS011;57470;50.034;15.256;2023-03-25T11:44:17;4.40;;;1.10;;
70102;SDS011;57470;50.034;15.256;2023-03-25T11:47:05;13.00;;;6.13;;
70102;SDS011;57470;50.034;15.256;2023-03-25T11:49:33;4.63;;;1.45;;
70102;SDS011;57470;50.034;15.256;2023-03-25T11:52:04;6.90;;;2.60;;
70102;SDS011;57470;50.034;15.256;2023-03-25T11:54:32;3.85;;;1.05;;
70102;SDS011;57470;50.034;15.256;2023-03-25T11:57:02;5.57;;;1.17;;
70102;SDS011;57470;50.034;15.256;2023-03-25T11:59:36;4.30;;;0.80;;
70102;SDS011;57470;50.034;15.256;2023-03-25T12:02:21;5.70;;;1.20;;
70102;SDS011;57470;50.034;15.256;2023-03-25T12:07:26;1.95;;;0.32;;
70102;SDS011;57470;50.034;15.256;2023-03-25T12:09:54;2.97;;;0.50;;
70102;SDS011;57470;50.034;15.256;2023-03-25T12:15:33;3.22;;;0.77;;
70102;SDS011;57470;50.034;15.256;2023-03-25T12:21:09;2.65;;;0.55;;
70102;SDS011;57470;50.034;15.256;2023-03-25T12:23:41;3.87;;;0.90;;
70102;SDS011;57470;50.034;15.256;2023-03-25T12:34:28;2.42;;;0.50;;
70102;SDS011;57470;50.034;15.256;2023-03-25T12:42:55;3.03;;;0.60;;
70102;SDS011;57470;50.034;15.256;2023-03-25T12:48:49;3.40;;;0.85;;
70102;SDS011;57470;50.034;15.256;2023-03-25T12:56:30;3.10;;;0.70;;
70102;SDS011;57470;50.034;15.256;2023-03-25T12:59:26;2.75;;;0.70;;
70102;SDS011;57470;50.034;15.256;2023-03-25T13:02:25;3.75;;;0.50;;
70102;SDS011;57470;50.034;15.256;2023-03-25T13:08:04;2.55;;;0.52;;
70102;SDS011;57470;50.034;15.256;2023-03-25T13:11:05;2.58;;;0.68;;
70102;SDS011;57470;50.034;15.256;2023-03-25T13:13:35;1.95;;;0.40;;
70102;SDS011;57470;50.034;15.256;2023-03-25T13:16:05;2.97;;;0.57;;
70102;SDS011;57470;50.034;15.256;2023-03-25T13:21:15;2.60;;;0.82;;
70102;SDS011;57470;50.034;15.256;2023-03-25T13:23:45;2.65;;;0.50;;
70102;SDS011;57470;50.034;15.256;2023-03-25T13:26:17;4.65;;;0.57;;
70102;SDS011;57470;50.034;15.256;2023-03-25T13:28:46;2.80;;;0.70;;
70102;SDS011;57470;50.034;15.256;2023-03-25T13:31:19;2.60;;;0.60;;
70102;SDS011;57470;50.034;15.256;2023-03-25T13:45:40;2.37;;;0.50;;
70102;SDS011;57470;50.034;15.256;2023-03-25T13:48:11;3.78;;;0.93;;
70102;SDS011;57470;50.034;15.256;2023-03-25T13:50:42;4.45;;;1.52;;
70102;SDS011;57470;50.034;15.256;2023-03-25T13:53:16;3.13;;;0.70;;
70102;SDS011;57470;50.034;15.256;2023-03-25T13:55:44;2.67;;;0.67;;
70102;SDS011;57470;50.034;15.256;2023-03-25T14:12:22;3.22;;;0.90;;
70102;SDS011;57470;50.034;15.256;2023-03-25T14:17:59;3.50;;;1.08;;
70102;SDS011;57470;50.034;15.256;2023-03-25T14:20:28;2.63;;;0.55;;
70102;SDS011;57470;50.034;15.256;2023-03-25T14:23:02;2.57;;;0.70;;
70102;SDS011;57470;50.034;15.256;2023-03-25T14:28:03;2.22;;;0.45;;
70102;SDS011;57470;50.034;15.256;2023-03-25T14:30:32;3.05;;;0.95;;
70102;SDS011;57470;50.034;15.256;2023-03-25T14:32:58;4.75;;;0.95;;
70102;SDS011;57470;50.034;15.256;2023-03-25T14:41:06;2.30;;;0.70;;
70102;SDS011;57470;50.034;15.256;2023-03-25T14:43:36;2.87;;;0.60;;
70102;SDS011;57470;50.034;15.256;2023-03-25T14:49:22;2.03;;;0.47;;
70102;SDS011;57470;50.034;15.256;2023-03-25T14:51:43;2.15;;;0.47;;
70102;SDS011;57470;50.034;15.256;2023-03-25T14:54:18;1.98;;;0.47;;
70102;SDS011;57470;50.034;15.256;2023-03-25T14:59:22;2.80;;;0.52;;
70102;SDS011;57470;50.034;15.256;2023-03-25T15:01:53;2.83;;;0.77;;
70102;SDS011;57470;50.034;15.256;2023-03-25T15:04:35;2.00;;;0.40;;
70102;SDS011;57470;50.034;15.256;2023-03-25T15:07:03;2.75;;;0.60;;
70102;SDS011;57470;50.034;15.256;2023-03-25T15:09:42;2.23;;;0.50;;
70102;SDS011;57470;50.034;15.256;2023-03-25T15:12:12;2.50;;;0.50;;
70102;SDS011;57470;50.034;15.256;2023-03-25T15:14:41;1.85;;;0.40;;
70102;SDS011;57470;50.034;15.256;2023-03-25T15:17:11;3.13;;;0.70;;
70102;SDS011;57470;50.034;15.256;2023-03-25T15:22:39;2.00;;;0.40;;
70102;SDS011;57470;50.034;15.256;2023-03-25T15:25:14;2.55;;;0.57;;
70102;SDS011;57470;50.034;15.256;2023-03-25T15:42:32;3.00;;;0.60;;
70102;SDS011;57470;50.034;15.256;2023-03-25T15:44:38;2.47;;;0.68;;
70102;SDS011;57470;50.034;15.256;2023-03-25T15:47:40;8.30;;;1.98;;
70102;SDS011;57470;50.034;15.256;2023-03-25T15:50:29;3.78;;;0.80;;
70102;SDS011;57470;50.034;15.256;2023-03-25T15:56:26;3.00;;;0.83;;
70102;SDS011;57470;50.034;15.256;2023-03-25T16:01:31;4.38;;;2.00;;
70102;SDS011;57470;50.034;15.256;2023-03-25T16:04:00;18.05;;;5.97;;
70102;SDS011;57470;50.034;15.256;2023-03-25T16:06:30;9.57;;;3.45;;
70102;SDS011;57470;50.034;15.256;2023-03-25T16:09:02;6.73;;;2.20;;
70102;SDS011;57470;50.034;15.256;2023-03-25T16:11:28;5.30;;;1.88;;
70102;SDS011;57470;50.034;15.256;2023-03-25T16:14:05;17.33;;;5.30;;
70102;SDS011;57470;50.034;15.256;2023-03-25T16:16:35;10.48;;;3.42;;
70102;SDS011;57470;50.034;15.256;2023-03-25T16:19:07;10.60;;;4.43;;
70102;SDS011;57470;50.034;15.256;2023-03-25T16:21:35;20.17;;;4.73;;
70102;SDS011;57470;50.034;15.256;2023-03-25T16:24:02;25.52;;;5.43;;
70102;SDS011;57470;50.034;15.256;2023-03-25T16:26:32;27.30;;;6.22;;
70102;SDS011;57470;50.034;15.256;2023-03-25T16:29:07;24.88;;;5.97;;
70102;SDS011;57470;50.034;15.256;2023-03-25T16:31:40;24.08;;;5.68;;
70102;SDS011;57470;50.034;15.256;2023-03-25T16:34:14;4.23;;;1.53;;
70102;SDS011;57470;50.034;15.256;2023-03-25T16:36:43;22.48;;;5.40;;
70102;SDS011;57470;50.034;15.256;2023-03-25T16:39:12;8.23;;;2.38;;
70102;SDS011;57470;50.034;15.256;2023-03-25T16:41:41;6.43;;;1.55;;
70102;SDS011;57470;50.034;15.256;2023-03-25T16:44:11;4.33;;;1.30;;
70102;SDS011;57470;50.034;15.256;2023-03-25T16:46:39;6.10;;;1.60;;
70102;SDS011;57470;50.034;15.256;2023-03-25T16:49:05;8.30;;;2.30;;
70102;SDS011;57470;50.034;15.256;2023-03-25T16:51:31;9.07;;;2.25;;
70102;SDS011;57470;50.034;15.256;2023-03-25T16:54:02;9.57;;;3.17;;
70102;SDS011;57470;50.034;15.256;2023-03-25T16:56:35;7.13;;;1.63;;
70102;SDS011;57470;50.034;15.256;2023-03-25T17:01:35;4.78;;;1.80;;
70102;SDS011;57470;50.034;15.256;2023-03-25T17:04:07;5.38;;;1.20;;
70102;SDS011;57470;50.034;15.256;2023-03-25T17:06:41;6.50;;;2.20;;
70102;SDS011;57470;50.034;15.256;2023-03-25T17:09:12;6.75;;;1.73;;
70102;SDS011;57470;50.034;15.256;2023-03-25T17:11:41;4.68;;;1.35;;
70102;SDS011;57470;50.034;15.256;2023-03-25T17:14:15;4.85;;;2.22;;
70102;SDS011;57470;50.034;15.256;2023-03-25T17:16:46;4.30;;;1.17;;
70102;SDS011;57470;50.034;15.256;2023-03-25T17:19:15;4.43;;;1.17;;
70102;SDS011;57470;50.034;15.256;2023-03-25T17:24:48;3.28;;;0.70;;
70102;SDS011;57470;50.034;15.256;2023-03-25T17:27:34;2.55;;;0.70;;
70102;SDS011;57470;50.034;15.256;2023-03-25T17:30:15;4.30;;;1.20;;
70102;SDS011;57470;50.034;15.256;2023-03-25T17:32:45;3.00;;;0.87;;
70102;SDS011;57470;50.034;15.256;2023-03-25T17:35:19;3.05;;;0.93;;
70102;SDS011;57470;50.034;15.256;2023-03-25T17:37:51;6.00;;;1.67;;
70102;SDS011;57470;50.034;15.256;2023-03-25T17:40:24;5.85;;;0.85;;
70102;SDS011;57470;50.034;15.256;2023-03-25T17:42:51;5.38;;;0.73;;